sensor_id;sensor_type;location;lat;lon;timestamp;pressure;altitude;pressure_sealevel;temperature;humidity
75991;BME280;64673;52.276;10.560;2023-03-01T00:01:18;102305.28;;;-3.03;79.89
75991;BME280;64673;52.276;10.560;2023-03-01T00:03:44;102314.44;;;-3.17;80.99
75991;BME280;64673;52.276;10.560;2023-03-01T00:06:10;102312.09;;;-3.20;80.72
75991;BME280;64673;52.276;10.560;2023-03-01T00:08:35;102309.88;;;-2.96;79.79
75991;BME280;64673;52.276;10.560;2023-03-01T00:13:31;102307.94;;;-3.03;80.98
75991;BME280;64673;52.276;10.560;2023-03-01T00:15:57;102304.44;;;-3.23;80.67
75991;BME280;64673;52.276;10.560;2023-03-01T00:18:22;102305.56;;;-2.97;79.78
75991;BME280;64673;52.276;10.560;2023-03-01T00:20:52;102311.13;;;-2.80;79.89
75991;BME280;64673;52.276;10.560;2023-03-01T00:23:18;102309.31;;;-3.09;81.80
75991;BME280;64673;52.276;10.560;2023-03-01T00:25:44;102299.50;;;-3.56;82.95
75991;BME280;64673;52.276;10.560;2023-03-01T00:28:09;102293.25;;;-3.55;83.15
75991;BME280;64673;52.276;10.560;2023-03-01T00:30:34;102298.47;;;-3.75;83.64
75991;BME280;64673;52.276;10.560;2023-03-01T00:33:00;102302.50;;;-3.71;84.53
75991;BME280;64673;52.276;10.560;2023-03-01T00:35:25;102293.09;;;-3.63;83.14
75991;BME280;64673;52.276;10.560;2023-03-01T00:37:51;102295.41;;;-3.40;83.67
75991;BME280;64673;52.276;10.560;2023-03-01T00:40:27;102299.84;;;-3.40;83.02
75991;BME280;64673;52.276;10.560;2023-03-01T00:42:52;102293.13;;;-3.54;82.94
75991;BME280;64673;52.276;10.560;2023-03-01T00:45:18;102294.34;;;-3.67;82.27
75991;BME280;64673;52.276;10.560;2023-03-01T00:47:43;102295.69;;;-3.83;83.97
75991;BME280;64673;52.276;10.560;2023-03-01T00:50:10;102293.97;;;-3.93;83.97
75991;BME280;64673;52.276;10.560;2023-03-01T00:52:35;102298.75;;;-3.78;83.94
75991;BME280;64673;52.276;10.560;2023-03-01T00:55:01;102294.66;;;-3.61;81.99
75991;BME280;64673;52.276;10.560;2023-03-01T00:57:26;102293.97;;;-3.53;82.51
75991;BME280;64673;52.276;10.560;2023-03-01T00:59:52;102296.56;;;-3.73;82.24
75991;BME280;64673;52.276;10.560;2023-03-01T01:02:18;102294.84;;;-3.83;82.57
75991;BME280;64673;52.276;10.560;2023-03-01T01:04:44;102290.94;;;-3.89;83.39
75991;BME280;64673;52.276;10.560;2023-03-01T01:07:10;102291.91;;;-3.90;84.03
75991;BME280;64673;52.276;10.560;2023-03-01T01:09:35;102292.41;;;-4.06;84.18
75991;BME280;64673;52.276;10.560;2023-03-01T01:12:01;102289.22;;;-3.99;83.79
75991;BME280;64673;52.276;10.560;2023-03-01T01:14:27;102288.78;;;-3.74;82.44
75991;BME280;64673;52.276;10.560;2023-03-01T01:16:52;102281.00;;;-3.76;82.27
75991;BME280;64673;52.276;10.560;2023-03-01T01:19:18;102276.88;;;-3.99;83.80
75991;BME280;64673;52.276;10.560;2023-03-01T01:21:43;102275.25;;;-3.90;83.20
75991;BME280;64673;52.276;10.560;2023-03-01T01:24:10;102272.88;;;-4.03;83.61
75991;BME280;64673;52.276;10.560;2023-03-01T01:26:36;102276.72;;;-4.07;83.24
75991;BME280;64673;52.276;10.560;2023-03-01T01:29:03;102267.44;;;-3.71;81.94
75991;BME280;64673;52.276;10.560;2023-03-01T01:31:29;102268.81;;;-3.57;83.16
75991;BME280;64673;52.276;10.560;2023-03-01T01:33:56;102265.59;;;-3.71;81.85
75991;BME280;64673;52.276;10.560;2023-03-01T01:36:22;102272.59;;;-3.50;82.40
75991;BME280;64673;52.276;10.560;2023-03-01T01:38:48;102269.53;;;-3.55;81.33
75991;BME280;64673;52.276;10.560;2023-03-01T01:41:14;102269.53;;;-3.55;81.63
75991;BME280;64673;52.276;10.560;2023-03-01T01:43:42;102268.38;;;-3.82;83.29
75991;BME280;64673;52.276;10.560;2023-03-01T01:46:32;102266.31;;;-4.09;83.34
75991;BME280;64673;52.276;10.560;2023-03-01T01:49:20;102257.09;;;-3.93;83.84
75991;BME280;64673;52.276;10.560;2023-03-01T01:51:50;102257.97;;;-4.14;84.11
75991;BME280;64673;52.276;10.560;2023-03-01T01:54:21;102259.03;;;-3.86;82.56
75991;BME280;64673;52.276;10.560;2023-03-01T01:56:55;102249.56;;;-3.98;83.34
75991;BME280;64673;52.276;10.560;2023-03-01T01:59:23;102248.94;;;-4.11;84.08
75991;BME280;64673;52.276;10.560;2023-03-01T02:01:51;102251.03;;;-4.15;83.37
75991;BME280;64673;52.276;10.560;2023-03-01T02:04:17;102251.97;;;-4.25;84.71
75991;BME280;64673;52.276;10.560;2023-03-01T02:07:17;102251.78;;;-4.03;82.81
75991;BME280;64673;52.276;10.560;2023-03-01T02:09:48;102252.56;;;-3.82;82.62
75991;BME280;64673;52.276;10.560;2023-03-01T02:12:17;102247.28;;;-4.12;84.01
75991;BME280;64673;52.276;10.560;2023-03-01T02:14:43;102243.09;;;-4.24;84.83
75991;BME280;64673;52.276;10.560;2023-03-01T02:17:10;102241.75;;;-4.39;85.11
75991;BME280;64673;52.276;10.560;2023-03-01T02:22:28;102225.25;;;-4.42;84.20
75991;BME280;64673;52.276;10.560;2023-03-01T02:30:19;102219.28;;;-4.44;84.26
75991;BME280;64673;52.276;10.560;2023-03-01T02:32:45;102214.47;;;-4.38;84.43
75991;BME280;64673;52.276;10.560;2023-03-01T02:35:13;102207.75;;;-4.12;83.00
75991;BME280;64673;52.276;10.560;2023-03-01T02:37:41;102207.41;;;-3.98;82.31
75991;BME280;64673;52.276;10.560;2023-03-01T02:40:13;102212.41;;;-3.95;82.27
75991;BME280;64673;52.276;10.560;2023-03-01T02:42:56;102217.44;;;-4.22;84.12
75991;BME280;64673;52.276;10.560;2023-03-01T02:45:22;102212.78;;;-4.39;84.58
75991;BME280;64673;52.276;10.560;2023-03-01T02:47:48;102210.31;;;-4.62;85.10
75991;BME280;64673;52.276;10.560;2023-03-01T02:50:22;102205.78;;;-4.60;84.89
75991;BME280;64673;52.276;10.560;2023-03-01T02:53:23;102204.97;;;-4.51;84.48
75991;BME280;64673;52.276;10.560;2023-03-01T02:55:52;102196.69;;;-4.46;84.27
75991;BME280;64673;52.276;10.560;2023-03-01T02:58:19;102183.47;;;-4.25;84.47
75991;BME280;64673;52.276;10.560;2023-03-01T03:00:44;102193.81;;;-4.03;83.59
75991;BME280;64673;52.276;10.560;2023-03-01T03:03:16;102194.56;;;-3.82;81.99
75991;BME280;64673;52.276;10.560;2023-03-01T03:05:42;102194.13;;;-3.87;81.69
75991;BME280;64673;52.276;10.560;2023-03-01T03:08:08;102188.00;;;-3.97;82.23
75991;BME280;64673;52.276;10.560;2023-03-01T03:10:37;102191.63;;;-4.28;83.87
75991;BME280;64673;52.276;10.560;2023-03-01T03:13:06;102197.81;;;-4.39;83.88
75991;BME280;64673;52.276;10.560;2023-03-01T03:15:32;102199.16;;;-4.45;83.23
75991;BME280;64673;52.276;10.560;2023-03-01T03:18:03;102197.41;;;-4.65;84.60
75991;BME280;64673;52.276;10.560;2023-03-01T03:20:29;102192.16;;;-4.65;85.01
75991;BME280;64673;52.276;10.560;2023-03-01T03:22:56;102197.13;;;-4.71;85.41
75991;BME280;64673;52.276;10.560;2023-03-01T03:25:24;102194.31;;;-4.80;85.49
75991;BME280;64673;52.276;10.560;2023-03-01T03:27:52;102195.94;;;-4.58;84.60
75991;BME280;64673;52.276;10.560;2023-03-01T03:30:23;102195.03;;;-4.47;83.91
75991;BME280;64673;52.276;10.560;2023-03-01T03:32:49;102190.59;;;-4.77;84.46
75991;BME280;64673;52.276;10.560;2023-03-01T03:35:25;102202.06;;;-4.78;84.99
75991;BME280;64673;52.276;10.560;2023-03-01T03:37:52;102203.09;;;-4.90;85.30
75991;BME280;64673;52.276;10.560;2023-03-01T03:40:39;102198.97;;;-4.83;84.13
75991;BME280;64673;52.276;10.560;2023-03-01T03:43:16;102198.03;;;-4.52;84.73
75991;BME280;64673;52.276;10.560;2023-03-01T03:45:43;102195.91;;;-4.37;83.81
75991;BME280;64673;52.276;10.560;2023-03-01T03:48:10;102187.19;;;-4.28;82.35
75991;BME280;64673;52.276;10.560;2023-03-01T03:50:37;102189.81;;;-4.37;82.76
75991;BME280;64673;52.276;10.560;2023-03-01T03:53:10;102187.66;;;-4.74;84.43
75991;BME280;64673;52.276;10.560;2023-03-01T03:55:37;102200.72;;;-4.93;84.75
75991;BME280;64673;52.276;10.560;2023-03-01T03:58:05;102194.19;;;-4.99;85.67
75991;BME280;64673;52.276;10.560;2023-03-01T04:00:33;102192.44;;;-5.09;85.70
75991;BME280;64673;52.276;10.560;2023-03-01T04:02:59;102194.09;;;-5.08;85.56
75991;BME280;64673;52.276;10.560;2023-03-01T04:05:26;102186.97;;;-5.18;85.61
75991;BME280;64673;52.276;10.560;2023-03-01T04:07:51;102186.47;;;-5.11;85.92
75991;BME280;64673;52.276;10.560;2023-03-01T04:10:29;102194.84;;;-4.76;84.52
75991;BME280;64673;52.276;10.560;2023-03-01T04:12:55;102191.66;;;-4.59;83.51
75991;BME280;64673;52.276;10.560;2023-03-01T04:15:21;102203.94;;;-4.90;84.38
75991;BME280;64673;52.276;10.560;2023-03-01T04:17:50;102201.63;;;-5.04;85.97
75991;BME280;64673;52.276;10.560;2023-03-01T04:20:23;102197.25;;;-4.73;84.77
75991;BME280;64673;52.276;10.560;2023-03-01T04:22:58;102200.63;;;-4.61;83.38
75991;BME280;64673;52.276;10.560;2023-03-01T04:25:24;102193.81;;;-4.64;83.98
75991;BME280;64673;52.276;10.560;2023-03-01T04:27:50;102205.53;;;-4.98;84.91
75991;BME280;64673;52.276;10.560;2023-03-01T04:30:16;102202.38;;;-4.92;85.46
75991;BME280;64673;52.276;10.560;2023-03-01T04:32:41;102193.78;;;-4.73;84.35
75991;BME280;64673;52.276;10.560;2023-03-01T04:35:07;102193.81;;;-4.64;83.40
75991;BME280;64673;52.276;10.560;2023-03-01T04:37:32;102197.66;;;-4.98;85.38
75991;BME280;64673;52.276;10.560;2023-03-01T04:39:58;102194.63;;;-5.14;85.49
75991;BME280;64673;52.276;10.560;2023-03-01T04:42:23;102191.53;;;-5.20;85.50
75991;BME280;64673;52.276;10.560;2023-03-01T04:44:49;102192.78;;;-5.35;85.31
75991;BME280;64673;52.276;10.560;2023-03-01T04:47:16;102188.97;;;-5.31;85.03
75991;BME280;64673;52.276;10.560;2023-03-01T04:49:42;102188.53;;;-5.47;86.34
75991;BME280;64673;52.276;10.560;2023-03-01T04:52:07;102192.78;;;-5.35;85.44
75991;BME280;64673;52.276;10.560;2023-03-01T04:54:34;102185.00;;;-5.04;85.22
75991;BME280;64673;52.276;10.560;2023-03-01T04:57:00;102181.59;;;-5.16;84.87
75991;BME280;64673;52.276;10.560;2023-03-01T04:59:26;102186.00;;;-5.17;85.01
75991;BME280;64673;52.276;10.560;2023-03-01T05:01:53;102182.41;;;-5.16;85.56
75991;BME280;64673;52.276;10.560;2023-03-01T05:04:22;102182.91;;;-5.42;86.76
75991;BME280;64673;52.276;10.560;2023-03-01T05:06:48;102186.38;;;-5.42;86.30
75991;BME280;64673;52.276;10.560;2023-03-01T05:09:13;102181.47;;;-5.14;85.77
75991;BME280;64673;52.276;10.560;2023-03-01T05:11:39;102186.09;;;-5.39;86.09
75991;BME280;64673;52.276;10.560;2023-03-01T05:14:05;102181.88;;;-5.51;86.03
75991;BME280;64673;52.276;10.560;2023-03-01T05:16:32;102186.00;;;-5.17;85.15
75991;BME280;64673;52.276;10.560;2023-03-01T05:18:59;102185.66;;;-5.44;85.34
75991;BME280;64673;52.276;10.560;2023-03-01T05:21:25;102181.75;;;-5.29;85.73
75991;BME280;64673;52.276;10.560;2023-03-01T05:23:50;102174.47;;;-5.04;83.44
75991;BME280;64673;52.276;10.560;2023-03-01T05:26:17;102182.66;;;-5.19;84.41
75991;BME280;64673;52.276;10.560;2023-03-01T05:28:45;102175.59;;;-5.39;84.88
75991;BME280;64673;52.276;10.560;2023-03-01T05:31:10;102173.66;;;-5.58;85.46
75991;BME280;64673;52.276;10.560;2023-03-01T05:33:37;102180.19;;;-5.20;84.28
75991;BME280;64673;52.276;10.560;2023-03-01T05:36:03;102176.53;;;-5.40;84.45
75991;BME280;64673;52.276;10.560;2023-03-01T05:38:29;102179.53;;;-5.65;85.24
75991;BME280;64673;52.276;10.560;2023-03-01T05:40:54;102181.91;;;-5.62;85.65
75991;BME280;64673;52.276;10.560;2023-03-01T05:43:20;102170.69;;;-5.64;85.00
75991;BME280;64673;52.276;10.560;2023-03-01T05:45:45;102173.69;;;-5.69;85.76
75991;BME280;64673;52.276;10.560;2023-03-01T05:48:11;102182.19;;;-5.76;85.88
75991;BME280;64673;52.276;10.560;2023-03-01T05:50:40;102181.44;;;-5.67;85.65
75991;BME280;64673;52.276;10.560;2023-03-01T05:53:11;102167.31;;;-5.55;84.91
75991;BME280;64673;52.276;10.560;2023-03-01T05:55:37;102168.16;;;-5.55;85.16
75991;BME280;64673;52.276;10.560;2023-03-01T05:58:06;102170.69;;;-5.64;85.20
75991;BME280;64673;52.276;10.560;2023-03-01T06:00:32;102171.16;;;-5.70;85.39
75991;BME280;64673;52.276;10.560;2023-03-01T06:02:59;102163.81;;;-5.76;85.78
75991;BME280;64673;52.276;10.560;2023-03-01T06:05:25;102165.78;;;-5.89;86.18
75991;BME280;64673;52.276;10.560;2023-03-01T06:07:51;102167.28;;;-5.87;86.21
75991;BME280;64673;52.276;10.560;2023-03-01T06:10:19;102173.34;;;-5.75;86.49
75991;BME280;64673;52.276;10.560;2023-03-01T06:12:45;102168.66;;;-5.40;85.44
75991;BME280;64673;52.276;10.560;2023-03-01T06:15:12;102162.66;;;-5.31;84.63
75991;BME280;64673;52.276;10.560;2023-03-01T06:17:39;102161.75;;;-5.41;85.33
75991;BME280;64673;52.276;10.560;2023-03-01T06:20:11;102163.22;;;-5.48;84.82
75991;BME280;64673;52.276;10.560;2023-03-01T06:22:37;102161.66;;;-5.50;84.98
75991;BME280;64673;52.276;10.560;2023-03-01T06:25:03;102164.44;;;-5.52;86.10
75991;BME280;64673;52.276;10.560;2023-03-01T06:27:28;102159.66;;;-5.26;85.25
75991;BME280;64673;52.276;10.560;2023-03-01T06:29:54;102166.97;;;-5.09;84.67
75991;BME280;64673;52.276;10.560;2023-03-01T06:32:19;102160.09;;;-5.42;85.86
75991;BME280;64673;52.276;10.560;2023-03-01T06:34:45;102161.06;;;-5.43;84.84
75991;BME280;64673;52.276;10.560;2023-03-01T06:37:10;102157.72;;;-5.45;85.91
75991;BME280;64673;52.276;10.560;2023-03-01T06:39:36;102173.69;;;-5.37;85.04
75991;BME280;64673;52.276;10.560;2023-03-01T06:42:01;102166.50;;;-5.35;85.45
75991;BME280;64673;52.276;10.560;2023-03-01T06:44:27;102173.19;;;-5.31;85.36
75991;BME280;64673;52.276;10.560;2023-03-01T06:46:52;102172.72;;;-5.36;85.31
75991;BME280;64673;52.276;10.560;2023-03-01T06:49:18;102175.19;;;-5.23;85.67
75991;BME280;64673;52.276;10.560;2023-03-01T06:51:43;102171.78;;;-5.14;85.34
75991;BME280;64673;52.276;10.560;2023-03-01T06:54:09;102177.16;;;-5.16;85.26
75991;BME280;64673;52.276;10.560;2023-03-01T06:56:35;102176.38;;;-5.06;86.16
75991;BME280;64673;52.276;10.560;2023-03-01T06:59:00;102170.56;;;-5.10;86.31
75991;BME280;64673;52.276;10.560;2023-03-01T07:01:27;102175.63;;;-4.97;86.33
75991;BME280;64673;52.276;10.560;2023-03-01T07:03:53;102175.75;;;-4.78;85.76
75991;BME280;64673;52.276;10.560;2023-03-01T07:06:18;102178.47;;;-4.89;85.75
75991;BME280;64673;52.276;10.560;2023-03-01T07:08:43;102180.81;;;-4.86;85.23
75991;BME280;64673;52.276;10.560;2023-03-01T07:11:09;102176.44;;;-4.76;85.68
75991;BME280;64673;52.276;10.560;2023-03-01T07:13:34;102177.13;;;-4.74;85.22
75991;BME280;64673;52.276;10.560;2023-03-01T07:16:00;102165.47;;;-4.51;85.59
75991;BME280;64673;52.276;10.560;2023-03-01T07:18:25;102166.97;;;-4.27;86.43
75991;BME280;64673;52.276;10.560;2023-03-01T07:20:51;102170.78;;;-4.01;84.09
75991;BME280;64673;52.276;10.560;2023-03-01T07:23:16;102160.13;;;-3.80;84.07
75991;BME280;64673;52.276;10.560;2023-03-01T07:25:41;102162.75;;;-3.80;84.92
75991;BME280;64673;52.276;10.560;2023-03-01T07:28:07;102161.81;;;-3.70;83.61
75991;BME280;64673;52.276;10.560;2023-03-01T07:30:32;102159.72;;;-3.76;83.55
75991;BME280;64673;52.276;10.560;2023-03-01T07:32:58;102157.25;;;-3.67;83.42
75991;BME280;64673;52.276;10.560;2023-03-01T07:35:27;102150.59;;;-3.72;84.84
75991;BME280;64673;52.276;10.560;2023-03-01T07:37:53;102155.03;;;-3.62;84.37
75991;BME280;64673;52.276;10.560;2023-03-01T07:40:19;102148.94;;;-3.53;84.11
75991;BME280;64673;52.276;10.560;2023-03-01T07:42:45;102150.59;;;-3.43;84.48
75991;BME280;64673;52.276;10.560;2023-03-01T07:45:10;102156.25;;;-3.28;82.14
75991;BME280;64673;52.276;10.560;2023-03-01T07:47:36;102149.31;;;-3.10;81.39
75991;BME280;64673;52.276;10.560;2023-03-01T07:50:03;102146.91;;;-2.93;80.43
75991;BME280;64673;52.276;10.560;2023-03-01T07:52:29;102156.88;;;-2.78;81.81
75991;BME280;64673;52.276;10.560;2023-03-01T07:54:55;102158.22;;;-2.64;79.67
75991;BME280;64673;52.276;10.560;2023-03-01T07:57:21;102161.00;;;-2.56;79.62
75991;BME280;64673;52.276;10.560;2023-03-01T07:59:46;102157.97;;;-2.34;79.72
75991;BME280;64673;52.276;10.560;2023-03-01T08:02:11;102159.84;;;-2.16;79.14
75991;BME280;64673;52.276;10.560;2023-03-01T08:04:37;102162.06;;;-2.22;78.98
75991;BME280;64673;52.276;10.560;2023-03-01T08:07:05;102162.41;;;-2.07;78.34
75991;BME280;64673;52.276;10.560;2023-03-01T08:09:30;102165.97;;;-1.98;78.44
75991;BME280;64673;52.276;10.560;2023-03-01T08:11:57;102165.16;;;-1.99;79.16
75991;BME280;64673;52.276;10.560;2023-03-01T08:14:24;102170.28;;;-1.97;78.29
75991;BME280;64673;52.276;10.560;2023-03-01T08:16:50;102161.94;;;-1.75;78.37
75991;BME280;64673;52.276;10.560;2023-03-01T08:19:15;102161.50;;;-1.70;78.32
75991;BME280;64673;52.276;10.560;2023-03-01T08:21:41;102159.16;;;-1.56;77.11
75991;BME280;64673;52.276;10.560;2023-03-01T08:24:07;102151.47;;;-1.49;77.47
75991;BME280;64673;52.276;10.560;2023-03-01T08:26:33;102154.03;;;-1.39;76.31
75991;BME280;64673;52.276;10.560;2023-03-01T08:28:59;102146.84;;;-1.29;75.37
75991;BME280;64673;52.276;10.560;2023-03-01T08:31:31;102151.41;;;-1.14;74.77
75991;BME280;64673;52.276;10.560;2023-03-01T08:33:59;102148.00;;;-1.06;74.16
75991;BME280;64673;52.276;10.560;2023-03-01T08:36:27;102146.59;;;-0.92;74.34
75991;BME280;64673;52.276;10.560;2023-03-01T08:38:53;102149.97;;;-0.82;73.86
75991;BME280;64673;52.276;10.560;2023-03-01T08:41:19;102144.56;;;-0.73;74.07
75991;BME280;64673;52.276;10.560;2023-03-01T08:43:44;102142.28;;;-0.67;74.07
75991;BME280;64673;52.276;10.560;2023-03-01T08:46:10;102141.88;;;-0.55;73.82
75991;BME280;64673;52.276;10.560;2023-03-01T08:48:36;102138.00;;;-0.60;73.59
75991;BME280;64673;52.276;10.560;2023-03-01T08:53:37;102150.41;;;-0.35;74.37
75991;BME280;64673;52.276;10.560;2023-03-01T08:56:03;102139.81;;;-0.27;73.38
75991;BME280;64673;52.276;10.560;2023-03-01T08:58:29;102147.88;;;-0.03;72.38
75991;BME280;64673;52.276;10.560;2023-03-01T09:00:54;102149.19;;;0.02;74.20
75991;BME280;64673;52.276;10.560;2023-03-01T09:03:22;102145.41;;;0.12;71.91
75991;BME280;64673;52.276;10.560;2023-03-01T09:05:47;102145.59;;;0.19;71.15
75991;BME280;64673;52.276;10.560;2023-03-01T09:08:14;102147.28;;;0.28;71.21
75991;BME280;64673;52.276;10.560;2023-03-01T09:10:39;102139.00;;;0.47;70.15
75991;BME280;64673;52.276;10.560;2023-03-01T09:13:05;102137.69;;;0.59;70.14
75991;BME280;64673;52.276;10.560;2023-03-01T09:15:30;102139.19;;;0.70;69.91
75991;BME280;64673;52.276;10.560;2023-03-01T09:17:55;102135.69;;;0.78;69.33
75991;BME280;64673;52.276;10.560;2023-03-01T09:20:21;102141.00;;;0.78;68.63
75991;BME280;64673;52.276;10.560;2023-03-01T09:22:46;102142.97;;;1.00;69.48
75991;BME280;64673;52.276;10.560;2023-03-01T09:25:11;102133.34;;;1.07;67.50
75991;BME280;64673;52.276;10.560;2023-03-01T09:27:37;102131.97;;;1.19;67.27
75991;BME280;64673;52.276;10.560;2023-03-01T09:30:03;102127.34;;;1.21;67.02
75991;BME280;64673;52.276;10.560;2023-03-01T09:32:30;102136.91;;;1.46;66.64
75991;BME280;64673;52.276;10.560;2023-03-01T09:34:56;102129.06;;;1.53;65.95
75991;BME280;64673;52.276;10.560;2023-03-01T09:37:32;102132.22;;;1.57;65.49
75991;BME280;64673;52.276;10.560;2023-03-01T09:39:57;102130.19;;;1.67;67.18
75991;BME280;64673;52.276;10.560;2023-03-01T09:42:23;102124.78;;;1.83;66.12
75991;BME280;64673;52.276;10.560;2023-03-01T09:45:06;102118.41;;;1.92;63.99
75991;BME280;64673;52.276;10.560;2023-03-01T09:47:34;102126.06;;;1.95;61.80
75991;BME280;64673;52.276;10.560;2023-03-01T09:50:11;102125.50;;;2.08;62.64
75991;BME280;64673;52.276;10.560;2023-03-01T09:52:47;102119.81;;;2.11;64.68
75991;BME280;64673;52.276;10.560;2023-03-01T09:56:05;102118.16;;;2.10;62.95
75991;BME280;64673;52.276;10.560;2023-03-01T10:01:27;102116.97;;;2.35;60.09
75991;BME280;64673;52.276;10.560;2023-03-01T10:07:13;102122.72;;;2.47;59.08
75991;BME280;64673;52.276;10.560;2023-03-01T10:09:44;102119.44;;;2.82;58.56
75991;BME280;64673;52.276;10.560;2023-03-01T10:12:14;102118.66;;;2.59;59.24
75991;BME280;64673;52.276;10.560;2023-03-01T10:15:04;102114.16;;;2.60;59.88
75991;BME280;64673;52.276;10.560;2023-03-01T10:17:51;102120.88;;;2.70;58.99
75991;BME280;64673;52.276;10.560;2023-03-01T10:20:30;102120.03;;;2.92;58.90
75991;BME280;64673;52.276;10.560;2023-03-01T10:22:59;102116.16;;;2.95;59.18
75991;BME280;64673;52.276;10.560;2023-03-01T10:31:13;102112.06;;;3.22;57.05
75991;BME280;64673;52.276;10.560;2023-03-01T10:33:41;102112.69;;;3.53;57.77
75991;BME280;64673;52.276;10.560;2023-03-01T10:36:07;102108.03;;;3.26;57.68
75991;BME280;64673;52.276;10.560;2023-03-01T10:38:54;102104.31;;;2.98;57.54
75991;BME280;64673;52.276;10.560;2023-03-01T10:41:22;102107.16;;;2.96;57.35
75991;BME280;64673;52.276;10.560;2023-03-01T10:43:56;102105.69;;;2.93;57.11
75991;BME280;64673;52.276;10.560;2023-03-01T10:46:36;102106.53;;;3.09;56.22
75991;BME280;64673;52.276;10.560;2023-03-01T10:51:47;102093.66;;;3.42;57.18
75991;BME280;64673;52.276;10.560;2023-03-01T10:54:29;102097.25;;;3.34;56.63
75991;BME280;64673;52.276;10.560;2023-03-01T10:56:57;102091.19;;;3.11;57.78
75991;BME280;64673;52.276;10.560;2023-03-01T10:59:27;102097.63;;;3.31;56.68
75991;BME280;64673;52.276;10.560;2023-03-01T11:02:28;102097.25;;;3.34;54.33
75991;BME280;64673;52.276;10.560;2023-03-01T11:05:02;102088.50;;;3.40;55.42
75991;BME280;64673;52.276;10.560;2023-03-01T11:07:28;102087.78;;;3.97;54.91
75991;BME280;64673;52.276;10.560;2023-03-01T11:09:53;102094.06;;;3.89;55.29
75991;BME280;64673;52.276;10.560;2023-03-01T11:12:20;102090.34;;;3.69;55.15
75991;BME280;64673;52.276;10.560;2023-03-01T11:14:55;102085.06;;;3.76;54.33
75991;BME280;64673;52.276;10.560;2023-03-01T11:17:27;102082.75;;;3.87;53.10
75991;BME280;64673;52.276;10.560;2023-03-01T11:22:58;102076.34;;;4.03;53.43
75991;BME280;64673;52.276;10.560;2023-03-01T11:25:27;102074.56;;;3.89;54.38
75991;BME280;64673;52.276;10.560;2023-03-01T11:27:56;102069.63;;;4.28;53.17
75991;BME280;64673;52.276;10.560;2023-03-01T11:38:53;102065.53;;;3.90;54.16
75991;BME280;64673;52.276;10.560;2023-03-01T11:41:34;102071.41;;;4.00;54.11
75991;BME280;64673;52.276;10.560;2023-03-01T11:44:03;102068.84;;;4.34;53.60
75991;BME280;64673;52.276;10.560;2023-03-01T11:54:09;102052.56;;;4.78;51.81
75991;BME280;64673;52.276;10.560;2023-03-01T11:56:41;102073.81;;;4.37;53.08
75991;BME280;64673;52.276;10.560;2023-03-01T12:07:27;102058.59;;;4.59;52.30
75991;BME280;64673;52.276;10.560;2023-03-01T12:10:16;102054.44;;;4.57;52.06
75991;BME280;64673;52.276;10.560;2023-03-01T12:15:20;102044.59;;;4.85;50.82
75991;BME280;64673;52.276;10.560;2023-03-01T12:20:46;102038.69;;;4.62;51.88
75991;BME280;64673;52.276;10.560;2023-03-01T12:37:29;102009.81;;;5.20;47.89
75991;BME280;64673;52.276;10.560;2023-03-01T12:45:44;101996.09;;;5.29;49.64
75991;BME280;64673;52.276;10.560;2023-03-01T12:48:35;101992.19;;;5.32;49.03
75991;BME280;64673;52.276;10.560;2023-03-01T12:51:10;101997.28;;;5.20;52.02
75991;BME280;64673;52.276;10.560;2023-03-01T12:53:43;101989.63;;;5.10;50.47
75991;BME280;64673;52.276;10.560;2023-03-01T12:56:12;101982.28;;;5.19;50.28
75991;BME280;64673;52.276;10.560;2023-03-01T13:12:52;101958.53;;;5.57;49.11
75991;BME280;64673;52.276;10.560;2023-03-01T13:17:48;101961.84;;;5.66;50.50
75991;BME280;64673;52.276;10.560;2023-03-01T13:20:19;101957.53;;;5.84;49.02
75991;BME280;64673;52.276;10.560;2023-03-01T13:22:45;101958.53;;;5.57;49.25
75991;BME280;64673;52.276;10.560;2023-03-01T13:25:19;101956.03;;;5.56;49.46
75991;BME280;64673;52.276;10.560;2023-03-01T13:27:45;101951.13;;;5.59;49.96
75991;BME280;64673;52.276;10.560;2023-03-01T13:30:40;101958.53;;;5.57;49.72
75991;BME280;64673;52.276;10.560;2023-03-01T13:46:44;101942.09;;;5.80;49.34
75991;BME280;64673;52.276;10.560;2023-03-01T13:49:15;101933.72;;;6.03;49.06
75991;BME280;64673;52.276;10.560;2023-03-01T13:51:46;101933.69;;;5.90;48.96
75991;BME280;64673;52.276;10.560;2023-03-01T13:54:12;101936.75;;;5.80;49.16
75991;BME280;64673;52.276;10.560;2023-03-01T13:56:40;101926.03;;;5.86;47.47
75991;BME280;64673;52.276;10.560;2023-03-01T13:59:13;101918.66;;;5.95;48.83
75991;BME280;64673;52.276;10.560;2023-03-01T14:01:39;101924.81;;;5.82;49.15
75991;BME280;64673;52.276;10.560;2023-03-01T14:04:23;101910.00;;;6.06;48.21
75991;BME280;64673;52.276;10.560;2023-03-01T14:06:49;101920.94;;;6.11;48.77
75991;BME280;64673;52.276;10.560;2023-03-01T14:09:16;101911.63;;;5.94;46.48
75991;BME280;64673;52.276;10.560;2023-03-01T14:14:51;101907.53;;;6.11;46.87
75991;BME280;64673;52.276;10.560;2023-03-01T14:18:06;101911.22;;;6.17;47.74
75991;BME280;64673;52.276;10.560;2023-03-01T14:20:38;101913.28;;;6.21;46.24
75991;BME280;64673;52.276;10.560;2023-03-01T14:23:11;101913.69;;;6.32;46.89
75991;BME280;64673;52.276;10.560;2023-03-01T14:25:37;101908.16;;;6.07;45.26
75991;BME280;64673;52.276;10.560;2023-03-01T14:30:36;101907.09;;;6.34;46.90
75991;BME280;64673;52.276;10.560;2023-03-01T14:33:06;101910.19;;;6.44;44.92
75991;BME280;64673;52.276;10.560;2023-03-01T14:35:34;101904.19;;;6.36;44.39
75991;BME280;64673;52.276;10.560;2023-03-01T14:38:00;101899.28;;;6.33;45.67
75991;BME280;64673;52.276;10.560;2023-03-01T14:40:35;101888.78;;;6.18;45.13
75991;BME280;64673;52.276;10.560;2023-03-01T14:43:04;101893.03;;;6.52;43.97
75991;BME280;64673;52.276;10.560;2023-03-01T14:45:33;101893.03;;;6.52;44.09
75991;BME280;64673;52.276;10.560;2023-03-01T14:48:00;101887.72;;;6.32;43.59